Time;durP1;ratioP1;P1;durP2;ratioP2;P2;SDS_P1;SDS_P2;PMS_P1;PMS_P2;Temp;Humidity;BMP_temperature;BMP_pressure;BME280_temperature;BME280_humidity;BME280_pressure;Samples;Min_cycle;Max_cycle;Signal;HPM_P1;HPM_P2
2022/09/06 00:00:53;;;;;;;5.32;4.22;;;20.80;99.90;;;;;;5016960;28;20067;-70
2022/09/06 00:03:19;;;;;;;5.28;3.85;;;20.90;99.90;;;;;;5016335;28;20045;-69
2022/09/06 00:05:45;;;;;;;5.10;3.85;;;20.90;99.90;;;;;;5016456;28;20041;-70
2022/09/06 00:08:10;;;;;;;6.22;3.40;;;20.80;99.90;;;;;;5020122;28;20511;-69
2022/09/06 00:10:36;;;;;;;6.32;3.33;;;20.70;99.90;;;;;;5022854;28;20069;-69
2022/09/06 00:13:06;;;;;;;7.30;3.80;;;20.70;99.90;;;;;;5021508;28;20041;-69
2022/09/06 00:15:33;;;;;;;8.07;3.33;;;20.80;99.90;;;;;;5013353;28;20041;-69
2022/09/06 00:18:05;;;;;;;10.38;3.30;;;20.70;99.90;;;;;;5023094;28;20046;-69
2022/09/06 00:20:31;;;;;;;21.75;4.68;;;20.50;99.90;;;;;;5009135;28;20042;-69
2022/09/06 00:23:03;;;;;;;8.07;3.50;;;20.60;99.90;;;;;;5024125;28;20516;-69
2022/09/06 00:25:29;;;;;;;5.00;3.10;;;20.60;99.90;;;;;;5019483;28;20050;-69
2022/09/06 00:27:57;;;;;;;4.43;3.33;;;20.70;99.90;;;;;;5016055;28;20033;-69
2022/09/06 00:30:23;;;;;;;4.97;4.03;;;20.70;99.90;;;;;;5017993;28;20128;-69
2022/09/06 00:32:49;;;;;;;4.75;3.28;;;20.60;99.90;;;;;;4997800;28;20080;-68
2022/09/06 00:35:15;;;;;;;5.15;3.88;;;20.50;99.90;;;;;;5022419;28;20037;-69
2022/09/06 00:37:40;;;;;;;4.35;3.17;;;20.50;99.90;;;;;;5013981;28;20128;-70
2022/09/06 00:40:07;;;;;;;3.53;3.22;;;20.60;99.90;;;;;;5037672;28;20042;-69
2022/09/06 00:42:32;;;;;;;10.38;3.90;;;20.60;99.90;;;;;;5016004;28;20068;-68
2022/09/06 00:44:59;;;;;;;3.95;3.45;;;20.60;99.90;;;;;;5015404;28;20135;-69
2022/09/06 00:47:26;;;;;;;6.75;2.97;;;20.30;99.90;;;;;;5022770;28;20259;-69
2022/09/06 00:49:55;;;;;;;5.53;3.47;;;20.20;99.90;;;;;;5011924;28;20124;-69
2022/09/06 00:52:22;;;;;;;5.25;4.70;;;20.20;99.90;;;;;;5015255;28;20524;-69
2022/09/06 00:54:49;;;;;;;9.25;4.65;;;20.20;99.90;;;;;;5013050;28;20404;-70
2022/09/06 00:57:16;;;;;;;4.03;3.25;;;20.20;99.90;;;;;;5024341;28;20117;-69
2022/09/06 00:59:44;;;;;;;10.38;3.67;;;20.30;99.90;;;;;;5018829;28;20045;-69
2022/09/06 01:02:10;;;;;;;5.78;3.33;;;20.30;99.90;;;;;;5015582;28;20404;-69
2022/09/06 01:04:39;;;;;;;5.90;3.83;;;20.30;99.90;;;;;;5016070;28;20033;-69
2022/09/06 01:07:09;;;;;;;7.28;3.78;;;20.20;99.90;;;;;;5024294;28;20048;-70
2022/09/06 01:09:41;;;;;;;;;;;20.10;99.90;;;;;;5025381;28;20455;-69
2022/09/06 01:12:26;;;;;;;8.70;4.50;;;20.10;99.90;;;;;;5015292;28;19928;-69
2022/09/06 01:15:15;;;;;;;10.65;3.95;;;20.10;99.90;;;;;;5025298;28;20099;-70
2022/09/06 01:17:47;;;;;;;4.63;3.42;;;20.10;99.90;;;;;;5019292;28;20060;-70
2022/09/06 01:20:37;;;;;;;5.22;3.90;;;20.10;99.90;;;;;;5024600;28;20041;-69
2022/09/06 01:23:21;;;;;;;5.78;3.92;;;20.10;99.90;;;;;;5021998;28;20052;-69
2022/09/06 01:26:35;;;;;;;3.63;3.30;;;20.10;99.90;;;;;;5015115;28;20045;-70
2022/09/06 01:29:03;;;;;;;6.00;3.72;;;20.00;99.90;;;;;;4982331;28;20045;-68
2022/09/06 01:31:44;;;;;;;9.07;3.90;;;20.00;99.90;;;;;;5017599;28;20045;-69
2022/09/06 01:34:34;;;;;;;5.05;3.97;;;20.00;99.90;;;;;;5018869;28;20045;-70
2022/09/06 01:37:04;;;;;;;;;;;19.90;99.90;;;;;;5018590;28;20041;-70
2022/09/06 01:39:31;;;;;;;;;;;19.90;99.90;;;;;;5025376;28;20283;-69
2022/09/06 01:42:03;;;;;;;6.75;4.20;;;20.00;99.90;;;;;;5025367;28;20427;-69
2022/09/06 01:44:30;;;;;;;6.45;3.88;;;19.90;99.90;;;;;;5038892;22;20054;-78
2022/09/06 01:47:20;;;;;;;7.47;3.88;;;19.90;99.90;;;;;;5014030;28;20133;-78
2022/09/06 01:50:12;;;;;;;9.85;4.05;;;19.90;99.90;;;;;;5018582;28;20045;-78
2022/09/06 01:53:02;;;;;;;8.88;3.42;;;19.90;99.90;;;;;;5009585;28;20073;-77
2022/09/06 01:55:50;;;;;;;7.65;3.88;;;19.90;99.90;;;;;;5020005;28;20056;-77
2022/09/06 01:58:39;;;;;;;10.07;4.55;;;19.80;99.90;;;;;;5027011;28;20124;-79
2022/09/06 02:01:15;;;;;;;9.02;3.22;;;19.70;99.90;;;;;;5023499;28;20045;-78
2022/09/06 02:04:02;;;;;;;9.05;4.30;;;19.60;99.90;;;;;;5024096;28;20049;-78
2022/09/06 02:06:37;;;;;;;13.52;4.22;;;19.60;99.90;;;;;;5025549;28;20041;-80
2022/09/06 02:09:06;;;;;;;5.10;4.20;;;19.40;99.90;;;;;;5025072;28;20048;-79
2022/09/06 02:11:42;;;;;;;4.88;4.32;;;19.50;99.90;;;;;;5025722;28;20042;-80
2022/09/06 02:14:14;;;;;;;6.53;3.50;;;19.40;99.90;;;;;;5012763;28;20059;-79
2022/09/06 02:16:43;;;;;;;7.00;4.35;;;19.40;99.90;;;;;;5008083;28;20053;-78
2022/09/06 02:19:32;;;;;;;8.48;4.07;;;19.40;99.90;;;;;;5024625;28;20487;-79
2022/09/06 02:21:58;;;;;;;7.82;3.80;;;19.40;99.90;;;;;;5021343;28;20057;-78
2022/09/06 02:24:29;;;;;;;8.13;4.07;;;19.40;99.90;;;;;;5023927;28;20053;-79
2022/09/06 02:26:55;;;;;;;4.80;3.40;;;19.30;99.90;;;;;;5024381;28;20497;-78
2022/09/06 02:29:22;;;;;;;4.03;3.53;;;19.30;99.90;;;;;;5026596;28;20133;-79
2022/09/06 02:32:13;;;;;;;6.40;3.97;;;19.30;99.90;;;;;;5023927;28;20712;-79
2022/09/06 02:34:40;;;;;;;4.22;3.83;;;19.30;99.90;;;;;;5027222;28;20396;-77
2022/09/06 02:37:06;;;;;;;4.22;3.75;;;19.30;99.90;;;;;;5023262;28;20068;-79
2022/09/06 02:39:32;;;;;;;5.28;4.25;;;19.30;99.90;;;;;;5026645;28;20042;-78
2022/09/06 02:41:59;;;;;;;8.88;3.75;;;19.20;99.90;;;;;;5022579;28;20169;-78
2022/09/06 02:44:25;;;;;;;6.30;3.97;;;19.20;99.90;;;;;;5025473;28;20057;-78
2022/09/06 02:46:51;;;;;;;5.15;4.00;;;19.20;99.90;;;;;;5024048;28;20118;-78
2022/09/06 02:49:16;;;;;;;7.93;4.57;;;19.30;99.90;;;;;;5007206;28;20126;-78
2022/09/06 02:51:42;;;;;;;8.25;4.68;;;19.20;99.90;;;;;;5023599;28;20037;-80
2022/09/06 02:54:08;;;;;;;12.07;5.20;;;19.20;99.90;;;;;;5026410;28;20431;-77
2022/09/06 02:56:35;;;;;;;6.13;3.83;;;19.20;99.90;;;;;;5042981;28;20045;-78
2022/09/06 02:59:03;;;;;;;6.18;4.72;;;19.10;99.90;;;;;;5039400;28;20045;-78
2022/09/06 03:01:29;;;;;;;6.60;4.30;;;19.10;99.90;;;;;;5024454;28;20054;-78
2022/09/06 03:03:55;;;;;;;8.30;4.90;;;19.10;99.90;;;;;;5027372;28;20694;-78
2022/09/06 03:06:21;;;;;;;10.80;4.95;;;19.10;99.90;;;;;;5027151;28;20038;-78
2022/09/06 03:08:47;;;;;;;16.83;4.75;;;19.10;99.90;;;;;;5023088;28;20423;-77
2022/09/06 03:11:12;;;;;;;14.63;6.32;;;19.00;99.90;;;;;;5020716;28;20041;-76
2022/09/06 03:13:38;;;;;;;6.85;4.10;;;19.00;99.90;;;;;;5025925;28;20121;-77
2022/09/06 03:16:04;;;;;;;8.73;4.63;;;19.00;99.90;;;;;;5017214;28;20045;-76
2022/09/06 03:18:30;;;;;;;9.40;4.50;;;19.00;99.90;;;;;;5023009;28;20037;-78
2022/09/06 03:20:57;;;;;;;7.50;4.65;;;18.90;99.90;;;;;;5015017;28;20377;-78
2022/09/06 03:23:25;;;;;;;6.20;4.40;;;19.00;99.90;;;;;;5018938;28;20042;-78
2022/09/06 03:25:51;;;;;;;5.75;3.45;;;18.90;99.90;;;;;;5021900;28;20495;-77
2022/09/06 03:28:18;;;;;;;7.43;5.07;;;18.90;99.90;;;;;;5025716;28;20041;-78
2022/09/06 03:30:45;;;;;;;7.70;3.80;;;19.00;99.90;;;;;;5019309;28;20746;-79
2022/09/06 03:33:11;;;;;;;8.65;4.55;;;18.90;99.90;;;;;;5015922;28;20492;-77
2022/09/06 03:35:37;;;;;;;5.80;4.63;;;18.90;99.90;;;;;;5015468;28;20186;-75
2022/09/06 03:38:03;;;;;;;4.40;4.00;;;18.90;99.90;;;;;;5025231;28;20132;-81
2022/09/06 03:40:28;;;;;;;9.00;4.50;;;18.80;99.90;;;;;;5017961;28;20037;-79
2022/09/06 03:42:55;;;;;;;8.85;4.03;;;18.70;99.90;;;;;;5018571;28;20687;-80
2022/09/06 03:45:20;;;;;;;5.47;4.20;;;18.70;99.90;;;;;;5019243;28;20128;-79
2022/09/06 03:47:46;;;;;;;6.93;4.35;;;18.70;99.90;;;;;;5006833;28;20507;-79
2022/09/06 03:50:12;;;;;;;7.28;4.40;;;18.80;99.90;;;;;;5015606;28;20049;-80
2022/09/06 03:52:38;;;;;;;4.40;4.00;;;18.80;99.90;;;;;;5022872;28;20041;-79
2022/09/06 03:55:04;;;;;;;6.10;4.43;;;18.70;99.90;;;;;;5022547;28;20427;-78
2022/09/06 03:57:30;;;;;;;5.25;4.78;;;18.70;99.90;;;;;;5018733;28;20048;-78
2022/09/06 03:59:55;;;;;;;4.82;3.83;;;18.70;99.90;;;;;;5025002;28;20050;-78
2022/09/06 04:02:21;;;;;;;11.50;4.97;;;18.70;99.90;;;;;;5022957;28;20041;-78
2022/09/06 04:04:47;;;;;;;8.60;4.95;;;18.70;99.90;;;;;;5022496;28;20128;-78
2022/09/06 04:07:12;;;;;;;4.97;4.30;;;18.80;99.90;;;;;;5018014;28;20648;-78
2022/09/06 04:09:38;;;;;;;5.00;4.50;;;18.80;99.90;;;;;;5018722;28;20038;-78
2022/09/06 04:12:04;;;;;;;6.38;4.68;;;18.80;99.90;;;;;;5017979;28;20064;-78
2022/09/06 04:14:29;;;;;;;7.50;4.57;;;18.80;99.90;;;;;;5024635;28;20052;-77
2022/09/06 04:16:55;;;;;;;5.40;4.68;;;18.80;99.90;;;;;;5020638;28;20037;-77
2022/09/06 04:19:21;;;;;;;12.82;4.38;;;18.80;99.90;;;;;;5021907;28;20514;-77
2022/09/06 04:21:47;;;;;;;8.48;5.25;;;18.70;99.90;;;;;;5020799;28;20037;-79
2022/09/06 04:24:13;;;;;;;13.10;6.03;;;18.70;99.90;;;;;;4998024;28;20095;-78
2022/09/06 04:26:38;;;;;;;8.48;5.90;;;18.60;99.90;;;;;;5021081;28;20037;-79
2022/09/06 04:29:04;;;;;;;7.95;5.07;;;18.50;99.90;;;;;;5024043;28;20495;-74
2022/09/06 04:31:30;;;;;;;11.20;5.65;;;18.40;99.90;;;;;;5022178;28;20033;-80
2022/09/06 04:33:55;;;;;;;9.13;5.72;;;18.30;99.90;;;;;;5027754;28;20042;-78
2022/09/06 04:36:21;;;;;;;11.45;6.75;;;18.20;99.90;;;;;;5022724;28;20121;-76
2022/09/06 04:38:47;;;;;;;6.80;5.80;;;18.00;99.90;;;;;;5008315;28;20038;-77
2022/09/06 04:41:15;;;;;;;6.70;5.75;;;18.10;99.90;;;;;;5027953;28;20042;-77
2022/09/06 04:43:41;;;;;;;6.65;6.03;;;18.00;99.90;;;;;;5026962;28;20056;-77
2022/09/06 04:46:14;;;;;;;9.50;6.20;;;17.90;99.90;;;;;;5028749;28;20428;-78
2022/09/06 04:48:39;;;;;;;9.05;6.80;;;17.70;99.90;;;;;;5022750;28;20045;-78
2022/09/06 04:51:05;;;;;;;7.55;5.95;;;17.70;99.90;;;;;;5022398;28;20044;-78
2022/09/06 04:53:30;;;;;;;9.05;6.70;;;17.70;99.90;;;;;;5024490;28;21016;-79
2022/09/06 04:55:57;;;;;;;8.05;6.57;;;17.70;99.90;;;;;;5021004;28;20037;-78
2022/09/06 04:58:23;;;;;;;10.93;6.10;;;17.80;99.90;;;;;;5024410;28;20041;-78
2022/09/06 05:00:49;;;;;;;11.85;5.85;;;17.70;99.90;;;;;;5024708;28;20073;-78
2022/09/06 05:03:14;;;;;;;11.13;6.47;;;17.60;99.90;;;;;;5003004;28;20080;-78
2022/09/06 05:05:40;;;;;;;8.65;7.72;;;17.50;99.90;;;;;;5019796;28;20041;-78
2022/09/06 05:08:05;;;;;;;8.82;7.13;;;17.50;99.90;;;;;;5027404;28;20124;-78
2022/09/06 05:10:31;;;;;;;12.13;6.47;;;17.40;99.90;;;;;;5025089;28;20073;-78
2022/09/06 05:13:00;;;;;;;7.25;6.55;;;17.40;99.90;;;;;;5027887;28;20082;-77
2022/09/06 05:15:26;;;;;;;7.53;6.75;;;17.60;99.90;;;;;;5026160;28;20119;-79
2022/09/06 05:17:51;;;;;;;7.75;7.03;;;17.50;99.90;;;;;;5017136;28;20046;-77
2022/09/06 05:20:17;;;;;;;7.55;6.82;;;17.40;99.90;;;;;;5020002;28;20025;-77
2022/09/06 05:22:50;;;;;;;7.47;6.78;;;17.40;99.90;;;;;;5023802;28;20049;-77
2022/09/06 05:25:16;;;;;;;9.90;7.13;;;17.30;99.90;;;;;;5018326;28;20121;-77
2022/09/06 05:27:41;;;;;;;9.90;7.00;;;17.30;99.90;;;;;;5022489;28;20129;-77
2022/09/06 05:30:08;;;;;;;8.00;7.13;;;17.30;99.90;;;;;;5020427;28;20384;-77
2022/09/06 05:32:34;;;;;;;8.27;6.60;;;17.30;99.90;;;;;;5019263;28;20080;-77
2022/09/06 05:34:59;;;;;;;8.80;7.95;;;17.30;99.90;;;;;;5021758;28;20049;-78
2022/09/06 05:37:25;;;;;;;11.80;6.68;;;17.40;99.90;;;;;;5024952;28;20041;-76
2022/09/06 05:39:51;;;;;;;10.18;6.90;;;17.40;99.90;;;;;;5023089;28;21629;-76
2022/09/06 05:42:16;;;;;;;12.18;7.43;;;17.50;99.90;;;;;;5002899;28;20038;-76
2022/09/06 05:44:42;;;;;;;8.23;6.95;;;17.30;99.90;;;;;;5020314;28;20070;-76
2022/09/06 05:47:08;;;;;;;12.20;8.15;;;17.30;99.90;;;;;;5023590;28;20045;-76
2022/09/06 05:49:33;;;;;;;10.35;7.45;;;17.30;99.90;;;;;;5020486;28;20418;-76
2022/09/06 05:51:59;;;;;;;8.10;7.30;;;17.30;99.90;;;;;;5013270;28;20088;-77
2022/09/06 05:54:25;;;;;;;9.52;7.20;;;17.20;99.90;;;;;;5016107;28;20087;-77
2022/09/06 05:56:50;;;;;;;8.40;7.60;;;17.20;99.90;;;;;;5027664;28;20495;-77
2022/09/06 05:59:16;;;;;;;8.15;7.43;;;17.20;99.90;;;;;;5025989;28;20041;-76
2022/09/06 06:01:52;;;;;;;7.78;7.00;;;17.20;99.90;;;;;;5029655;28;20527;-78
2022/09/06 06:04:18;;;;;;;12.27;7.05;;;17.30;99.90;;;;;;5031825;28;20460;-77
2022/09/06 06:06:48;;;;;;;11.45;7.65;;;17.30;99.90;;;;;;5027946;28;20132;-77
2022/09/06 06:09:14;;;;;;;10.13;8.88;;;17.30;99.90;;;;;;5027212;28;20408;-77
2022/09/06 06:11:40;;;;;;;10.25;7.40;;;17.40;99.90;;;;;;5026284;28;20049;-76
2022/09/06 06:14:07;;;;;;;12.23;8.13;;;17.40;99.90;;;;;;5027568;28;20045;-77
2022/09/06 06:16:32;;;;;;;14.50;7.20;;;17.40;99.90;;;;;;5026927;28;21072;-77
2022/09/06 06:18:58;;;;;;;7.55;6.47;;;17.30;99.90;;;;;;5027940;28;20052;-77
2022/09/06 06:21:26;;;;;;;8.23;7.35;;;17.40;99.90;;;;;;5038386;28;20056;-78
2022/09/06 06:24:02;;;;;;;15.15;6.68;;;17.30;99.90;;;;;;5021354;28;20045;-76
2022/09/06 06:26:31;;;;;;;9.60;8.55;;;17.40;99.90;;;;;;5020046;28;20095;-78
2022/09/06 06:29:00;;;;;;;14.60;7.15;;;17.50;99.90;;;;;;5023850;28;20172;-78
2022/09/06 06:31:30;;;;;;;10.57;7.97;;;17.50;99.90;;;;;;5017662;28;20862;-80
2022/09/06 06:33:55;;;;;;;9.80;7.75;;;17.60;99.90;;;;;;5017870;28;20050;-80
2022/09/06 06:36:24;;;;;;;9.40;7.40;;;17.60;99.90;;;;;;5024928;28;20082;-83
2022/09/06 06:38:54;;;;;;;11.10;8.73;;;17.60;99.90;;;;;;5017007;28;20060;-80
2022/09/06 06:41:22;;;;;;;9.45;8.55;;;17.60;99.90;;;;;;5018473;28;20046;-79
2022/09/06 06:43:56;;;;;;;9.63;7.97;;;17.70;99.90;;;;;;5014295;28;20048;-81
2022/09/06 06:46:25;;;;;;;8.75;7.07;;;17.60;99.90;;;;;;5021979;28;20041;-79
2022/09/06 06:48:53;;;;;;;9.20;8.05;;;17.70;99.90;;;;;;5026382;28;20049;-81
2022/09/06 06:51:19;;;;;;;13.45;8.43;;;17.80;99.90;;;;;;5026519;28;20060;-80
2022/09/06 06:53:46;;;;;;;12.45;10.20;;;17.90;99.90;;;;;;5024424;28;20060;-80
2022/09/06 06:56:24;;;;;;;9.88;8.48;;;17.90;99.90;;;;;;5021412;28;20077;-82
2022/09/06 06:58:51;;;;;;;8.50;7.65;;;18.00;99.90;;;;;;5017063;28;20187;-82
2022/09/06 07:01:19;;;;;;;9.20;8.13;;;18.10;99.90;;;;;;5026219;28;20037;-82
2022/09/06 07:03:46;;;;;;;9.98;8.02;;;17.90;99.90;;;;;;5024713;28;20120;-81
2022/09/06 07:06:12;;;;;;;8.48;7.32;;;18.00;99.90;;;;;;5020508;28;20037;-82
2022/09/06 07:08:39;;;;;;;18.42;8.57;;;18.00;99.90;;;;;;5017707;28;20120;-83
2022/09/06 07:11:06;;;;;;;12.65;8.25;;;17.90;99.90;;;;;;5029353;28;20107;-73
2022/09/06 07:13:32;;;;;;;9.93;8.68;;;17.90;99.90;;;;;;5021911;28;20081;-81
2022/09/06 07:16:21;;;;;;;9.25;7.93;;;17.90;99.90;;;;;;5024846;28;20041;-81
2022/09/06 07:18:52;;;;;;;10.45;8.57;;;17.90;99.90;;;;;;5022791;28;20052;-82
2022/09/06 07:21:19;;;;;;;14.27;8.57;;;18.00;99.90;;;;;;5018357;28;20037;-82
2022/09/06 07:23:45;;;;;;;10.50;8.20;;;18.30;99.90;;;;;;5024302;28;20124;-80
2022/09/06 07:26:19;;;;;;;10.70;9.23;;;18.50;99.90;;;;;;5007828;28;20049;-82
2022/09/06 07:28:48;;;;;;;9.77;8.27;;;18.40;99.90;;;;;;5024050;28;20057;-82
2022/09/06 07:31:13;;;;;;;11.52;8.90;;;18.60;99.90;;;;;;5023193;28;20053;-81
2022/09/06 07:33:45;;;;;;;9.50;8.40;;;18.80;99.90;;;;;;5004820;28;20084;-83
2022/09/06 07:36:14;;;;;;;10.40;9.40;;;18.80;99.90;;;;;;5024494;28;20127;-80
2022/09/06 07:38:42;;;;;;;9.23;8.43;;;18.90;99.90;;;;;;5022445;28;20615;-82
2022/09/06 07:41:09;;;;;;;11.05;9.32;;;19.00;99.90;;;;;;5023432;28;20046;-79
2022/09/06 07:43:37;;;;;;;12.02;9.25;;;19.10;99.90;;;;;;5026721;28;20053;-74
2022/09/06 07:46:13;;;;;;;8.65;7.88;;;19.30;99.90;;;;;;5023883;28;20053;-80
2022/09/06 07:48:40;;;;;;;10.98;8.70;;;19.40;99.90;;;;;;5040051;28;20145;-81
2022/09/06 07:51:06;;;;;;;11.85;10.02;;;19.40;99.90;;;;;;5023616;28;20040;-81
2022/09/06 07:53:33;;;;;;;10.68;9.73;;;19.60;99.90;;;;;;5016998;28;20061;-79
2022/09/06 07:56:00;;;;;;;9.95;9.02;;;19.90;99.90;;;;;;5022884;28;20041;-81
2022/09/06 07:58:27;;;;;;;10.65;8.57;;;20.00;99.90;;;;;;5023844;28;20456;-82
2022/09/06 08:00:53;;;;;;;9.73;8.70;;;20.20;99.90;;;;;;5025236;28;20396;-81
2022/09/06 08:03:18;;;;;;;9.48;8.48;;;20.20;99.90;;;;;;5022081;28;20053;-82
2022/09/06 08:05:50;;;;;;;9.73;8.40;;;20.30;99.90;;;;;;5021469;28;20148;-82
2022/09/06 08:08:16;;;;;;;12.60;9.07;;;20.10;99.90;;;;;;5004075;28;20050;-82
2022/09/06 08:10:41;;;;;;;12.40;8.95;;;20.10;99.90;;;;;;5015552;28;20049;-82
2022/09/06 08:13:07;;;;;;;13.95;9.73;;;20.10;99.90;;;;;;5024630;28;20049;-84
2022/09/06 08:15:33;;;;;;;13.95;9.25;;;20.10;99.90;;;;;;5025122;28;20060;-82
2022/09/06 08:17:58;;;;;;;10.48;8.48;;;20.30;99.90;;;;;;5021594;28;20072;-82
2022/09/06 08:20:24;;;;;;;11.43;9.10;;;20.30;99.90;;;;;;5023950;28;20045;-83
2022/09/06 08:22:50;;;;;;;14.85;9.02;;;20.30;99.90;;;;;;5023040;28;20049;-81
2022/09/06 08:25:15;;;;;;;12.55;8.50;;;20.30;99.90;;;;;;5022763;28;20527;-80
2022/09/06 08:27:41;;;;;;;11.90;9.07;;;20.30;99.90;;;;;;5024764;28;20081;-80
2022/09/06 08:30:07;;;;;;;11.00;8.57;;;20.50;99.90;;;;;;5024574;28;20034;-81
2022/09/06 08:32:37;;;;;;;13.63;9.02;;;20.70;99.90;;;;;;5022382;28;20128;-81
2022/09/06 08:35:03;;;;;;;11.70;8.50;;;20.80;99.90;;;;;;5024654;28;20740;-81
2022/09/06 08:37:29;;;;;;;13.50;7.20;;;21.00;99.90;;;;;;5021755;28;20413;-82
2022/09/06 08:39:54;;;;;;;9.77;8.23;;;21.10;99.90;;;;;;5020357;28;20045;-81
2022/09/06 08:42:20;;;;;;;12.20;8.77;;;21.00;99.90;;;;;;5023645;28;20073;-82
2022/09/06 08:44:51;;;;;;;11.15;8.55;;;20.90;99.90;;;;;;5007601;28;20069;-80
2022/09/06 08:47:19;;;;;;;9.70;7.75;;;21.10;99.90;;;;;;5024328;28;20056;-81
2022/09/06 08:49:48;;;;;;;9.85;8.73;;;21.40;99.90;;;;;;5023976;28;20083;-83
2022/09/06 08:52:25;;;;;;;10.93;8.35;;;21.50;99.90;;;;;;5025211;28;20129;-86
2022/09/06 08:54:59;;;;;;;11.43;8.10;;;21.50;99.90;;;;;;5020446;28;20045;-82
2022/09/06 08:57:53;;;;;;;12.85;8.70;;;21.70;99.90;;;;;;5022217;28;20092;-81
2022/09/06 09:00:20;;;;;;;9.52;8.43;;;21.90;99.90;;;;;;5005747;28;20532;-81
2022/09/06 09:03:05;;;;;;;12.07;8.32;;;21.90;99.90;;;;;;5024055;28;20064;-82
2022/09/06 09:05:37;;;;;;;12.98;8.60;;;22.00;99.90;;;;;;5022109;28;20087;-83
2022/09/06 09:08:27;;;;;;;9.60;7.03;;;22.20;99.90;;;;;;5023912;28;20076;-81
2022/09/06 09:11:06;;;;;;;9.80;7.13;;;22.50;99.90;;;;;;5022786;28;20049;-82
2022/09/06 09:13:46;;;;;;;11.05;8.50;;;22.60;99.90;;;;;;5022664;28;20042;-84
2022/09/06 09:16:13;;;;;;;10.07;8.82;;;22.80;99.90;;;;;;5023344;28;20084;-84
2022/09/06 09:18:42;;;;;;;14.05;9.05;;;22.90;99.90;;;;;;5025994;28;20439;-83
2022/09/06 09:21:09;;;;;;;10.93;8.07;;;22.90;99.90;;;;;;5026328;28;20388;-82
2022/09/06 09:23:35;;;;;;;11.82;8.68;;;22.80;99.90;;;;;;5026594;28;20120;-74
2022/09/06 09:26:09;;;;;;;14.77;8.63;;;22.80;99.90;;;;;;5026766;28;20120;-83
2022/09/06 09:28:35;;;;;;;9.73;7.85;;;22.70;99.90;;;;;;5024289;28;20102;-83
2022/09/06 09:31:01;;;;;;;10.20;7.95;;;22.80;99.90;;;;;;5027580;28;20411;-82
2022/09/06 09:33:39;;;;;;;9.05;8.15;;;23.00;99.90;;;;;;5026872;28;20050;-82
2022/09/06 09:36:11;;;;;;;21.55;8.13;;;23.00;99.90;;;;;;5025203;28;20061;-83
2022/09/06 09:38:43;;;;;;;9.55;7.55;;;23.20;99.90;;;;;;5024118;28;20135;-75
2022/09/06 09:41:22;;;;;;;9.55;6.68;;;23.30;99.90;;;;;;5026917;28;20048;-81
2022/09/06 09:44:01;;;;;;;8.57;7.03;;;23.40;99.90;;;;;;5011419;28;20116;-82
2022/09/06 09:46:32;;;;;;;9.55;6.63;;;23.40;99.90;;;;;;5026082;28;20041;-84
2022/09/06 09:49:21;;;;;;;11.77;6.65;;;23.30;99.90;;;;;;5026844;28;20048;-82
2022/09/06 09:52:12;;;;;;;10.00;6.30;;;23.40;99.90;;;;;;5031039;28;20046;-84
2022/09/06 09:54:40;;;;;;;7.53;6.82;;;23.60;99.90;;;;;;5027248;28;20052;-84
2022/09/06 09:57:13;;;;;;;10.40;6.78;;;23.70;99.90;;;;;;5034965;28;20041;-81
2022/09/06 09:59:44;;;;;;;9.90;7.72;;;23.50;99.90;;;;;;5034209;28;20056;-82
2022/09/06 10:02:30;;;;;;;8.65;7.78;;;23.60;99.90;;;;;;5028131;28;20052;-81
2022/09/06 10:05:18;;;;;;;10.00;7.38;;;23.60;99.90;;;;;;5024224;28;20049;-82
2022/09/06 10:07:50;;;;;;;7.82;7.07;;;23.80;99.90;;;;;;5026144;28;20054;-79
2022/09/06 10:10:20;;;;;;;11.82;6.40;;;23.90;99.90;;;;;;5023741;28;20095;-81
2022/09/06 10:12:46;;;;;;;10.18;5.93;;;24.00;99.90;;;;;;5026804;28;20045;-83
2022/09/06 10:15:33;;;;;;;11.15;7.15;;;24.20;99.90;;;;;;5027836;28;20052;-79
2022/09/06 10:17:59;;;;;;;9.05;7.28;;;24.40;99.90;;;;;;5024940;28;20137;-80
2022/09/06 10:21:02;;;;;;;7.43;6.68;;;24.30;99.90;;;;;;5024967;28;20116;-82
2022/09/06 10:23:39;;;;;;;7.40;6.70;;;24.40;99.90;;;;;;5013136;28;20433;-87
2022/09/06 10:26:31;;;;;;;8.98;5.78;;;24.50;99.90;;;;;;5028029;28;20053;-79
2022/09/06 10:29:25;;;;;;;8.50;5.85;;;24.70;99.90;;;;;;5018877;28;20187;-76
2022/09/06 10:32:06;;;;;;;7.03;5.40;;;24.60;99.90;;;;;;5023089;28;20094;-82
2022/09/06 10:34:59;;;;;;;8.68;5.63;;;24.60;99.90;;;;;;5027992;28;20832;-84
2022/09/06 10:37:58;;;;;;;6.10;4.30;;;24.80;99.90;;;;;;5022542;28;20053;-86
2022/09/06 10:40:28;;;;;;;7.22;3.67;;;24.80;99.90;;;;;;5024378;28;20478;-82
2022/09/06 10:42:58;;;;;;;5.25;3.80;;;25.00;99.90;;;;;;5024507;28;20103;-82
2022/09/06 10:45:41;;;;;;;8.18;3.65;;;25.40;99.90;;;;;;5024569;28;20053;-83
2022/09/06 10:48:29;;;;;;;4.13;3.72;;;25.40;99.90;;;;;;5025656;28;20096;-84
2022/09/06 10:51:20;;;;;;;14.40;3.92;;;25.60;99.90;;;;;;5024601;28;20060;-83
2022/09/06 10:54:09;;;;;;;3.60;3.28;;;25.60;99.90;;;;;;5037575;28;20037;-81
2022/09/06 10:56:38;;;;;;;7.32;3.53;;;25.50;99.90;;;;;;5025124;28;20099;-78
2022/09/06 10:59:26;;;;;;;8.20;4.63;;;25.80;99.90;;;;;;5026768;28;20038;-80
2022/09/06 11:02:13;;;;;;;7.90;4.90;;;25.80;99.90;;;;;;5026035;28;20396;-81
2022/09/06 11:04:41;;;;;;;6.57;3.90;;;25.60;99.90;;;;;;5008526;28;20074;-81
2022/09/06 11:07:33;;;;;;;6.25;4.07;;;25.50;99.90;;;;;;5018917;28;20077;-80
2022/09/06 11:10:12;;;;;;;5.50;3.83;;;25.70;99.90;;;;;;5022943;28;20046;-82
2022/09/06 11:12:43;;;;;;;40.72;4.72;;;25.80;99.90;;;;;;5006770;28;20041;-81
2022/09/06 11:15:12;;;;;;;14.95;3.85;;;26.00;99.90;;;;;;5024506;28;20045;-80
2022/09/06 11:17:41;;;;;;;5.20;3.65;;;25.80;99.90;;;;;;5024038;28;20372;-81
2022/09/06 11:20:12;;;;;;;5.93;3.22;;;25.80;99.90;;;;;;5023964;28;20110;-79
2022/09/06 11:22:47;;;;;;;3.58;3.05;;;26.10;99.90;;;;;;5022726;28;20051;-81
2022/09/06 11:25:54;;;;;;;5.20;3.28;;;26.20;99.90;;;;;;5009609;28;20371;-79
2022/09/06 11:28:45;;;;;;;5.40;3.35;;;26.10;99.90;;;;;;5011354;28;20057;-79
2022/09/06 11:31:21;;;;;;;6.40;3.75;;;26.00;99.90;;;;;;5025225;28;20053;-80
2022/09/06 11:33:48;;;;;;;5.45;3.38;;;26.10;99.90;;;;;;5021629;28;20053;-80
2022/09/06 11:36:25;;;;;;;5.53;3.25;;;26.20;99.90;;;;;;5022004;28;20041;-80
2022/09/06 11:39:00;;;;;;;6.03;3.88;;;25.90;99.90;;;;;;5020262;28;20144;-79
2022/09/06 11:41:32;;;;;;;6.00;3.08;;;26.30;99.90;;;;;;5014267;28;20049;-79
2022/09/06 11:43:58;;;;;;;6.60;3.13;;;26.00;99.90;;;;;;5022349;28;20124;-79
2022/09/06 11:46:32;;;;;;;4.82;2.95;;;26.30;99.90;;;;;;5025304;28;20124;-80
2022/09/06 11:49:02;;;;;;;4.18;3.30;;;26.30;99.90;;;;;;5005987;28;20553;-79
2022/09/06 11:51:38;;;;;;;2.63;2.28;;;26.20;99.90;;;;;;5014728;28;20043;-81
2022/09/06 11:54:25;;;;;;;5.90;2.88;;;26.30;99.90;;;;;;5020463;28;20049;-79
2022/09/06 11:56:53;;;;;;;3.35;2.95;;;26.50;99.90;;;;;;5025306;28;20053;-81
2022/09/06 11:59:20;;;;;;;4.13;2.38;;;26.30;99.90;;;;;;5018462;28;20078;-79
2022/09/06 12:02:30;;;;;;;5.43;3.00;;;26.50;99.90;;;;;;5024043;28;20491;-80
2022/09/06 12:04:59;;;;;;;2.42;2.05;;;26.60;99.90;;;;;;5018156;28;20057;-81
2022/09/06 12:07:26;;;;;;;4.80;2.40;;;26.60;99.90;;;;;;5023684;28;20563;-80
2022/09/06 12:09:52;;;;;;;4.05;2.00;;;26.60;99.90;;;;;;5023170;28;20049;-80
2022/09/06 12:12:43;;;;;;;5.72;3.13;;;26.80;99.90;;;;;;5025133;28;20029;-79
2022/09/06 12:15:28;;;;;;;7.68;2.70;;;27.00;99.90;;;;;;5014245;28;20048;-79
2022/09/06 12:17:55;;;;;;;3.40;2.60;;;26.80;99.90;;;;;;5021329;28;20045;-78
2022/09/06 12:20:53;;;;;;;2.97;2.67;;;27.00;99.90;;;;;;5024064;28;20037;-80
2022/09/06 12:23:33;;;;;;;4.78;2.85;;;26.90;99.90;;;;;;5022005;28;20049;-79
2022/09/06 12:26:00;;;;;;;4.57;2.45;;;26.90;99.90;;;;;;5006297;28;20572;-81
2022/09/06 12:28:40;;;;;;;5.93;2.58;;;26.90;99.90;;;;;;5023906;28;20088;-77
2022/09/06 12:31:29;;;;;;;8.07;2.45;;;26.90;99.90;;;;;;5023640;28;20052;-77
2022/09/06 12:33:57;;;;;;;4.47;3.10;;;26.80;99.90;;;;;;5037067;28;20049;-79
2022/09/06 12:36:48;;;;;;;3.40;2.92;;;27.00;99.90;;;;;;5039693;28;20122;-79
2022/09/06 12:39:14;;;;;;;3.78;2.70;;;27.00;99.90;;;;;;5016994;28;20132;-79
2022/09/06 12:41:44;;;;;;;7.93;3.38;;;27.00;99.90;;;;;;5021116;28;20508;-77
2022/09/06 12:44:13;;;;;;;5.88;3.88;;;27.20;99.90;;;;;;5022123;28;20053;-78
2022/09/06 12:46:46;;;;;;;3.67;3.25;;;27.30;99.90;;;;;;5007777;28;20431;-78
2022/09/06 12:49:14;;;;;;;3.95;3.53;;;27.20;99.90;;;;;;5022261;28;20038;-79
2022/09/06 12:51:40;;;;;;;2.95;2.65;;;27.40;99.90;;;;;;5008768;28;20094;-78
2022/09/06 12:54:17;;;;;;;14.38;3.80;;;27.30;99.90;;;;;;5026453;28;20033;-79
2022/09/06 12:56:43;;;;;;;4.95;4.18;;;27.50;99.90;;;;;;5029139;28;20053;-78
2022/09/06 12:59:12;;;;;;;3.45;3.15;;;27.20;99.90;;;;;;5027101;28;20237;-80
2022/09/06 13:01:44;;;;;;;3.60;3.03;;;27.20;99.90;;;;;;5028082;28;20041;-80
2022/09/06 13:04:25;;;;;;;3.58;3.28;;;27.20;99.90;;;;;;5029019;28;20056;-79
2022/09/06 13:06:51;;;;;;;4.75;3.58;;;27.10;99.90;;;;;;5028393;28;20049;-79